sensor_id;sensor_type;location;lat;lon;timestamp;temperature;humidity
20946;DHT22;10632;51.276;7.116;2023-06-24T00:02:05;17.80;99.90
20946;DHT22;10632;51.276;7.116;2023-06-24T00:04:33;17.80;99.90
20946;DHT22;10632;51.276;7.116;2023-06-24T00:07:02;17.70;99.90
20946;DHT22;10632;51.276;7.116;2023-06-24T00:09:29;17.60;99.90
20946;DHT22;10632;51.276;7.116;2023-06-24T00:11:57;17.60;99.90
20946;DHT22;10632;51.276;7.116;2023-06-24T00:14:26;17.60;99.90
20946;DHT22;10632;51.276;7.116;2023-06-24T00:16:54;17.50;99.90
20946;DHT22;10632;51.276;7.116;2023-06-24T00:19:24;17.50;99.90
20946;DHT22;10632;51.276;7.116;2023-06-24T00:21:52;17.50;99.90
20946;DHT22;10632;51.276;7.116;2023-06-24T00:24:20;17.50;99.90
20946;DHT22;10632;51.276;7.116;2023-06-24T00:26:52;17.40;99.90
20946;DHT22;10632;51.276;7.116;2023-06-24T00:29:19;17.40;99.90
20946;DHT22;10632;51.276;7.116;2023-06-24T00:31:47;17.40;99.90
20946;DHT22;10632;51.276;7.116;2023-06-24T00:34:14;17.40;99.90
20946;DHT22;10632;51.276;7.116;2023-06-24T00:36:43;17.30;99.90
20946;DHT22;10632;51.276;7.116;2023-06-24T00:39:12;17.30;99.90
20946;DHT22;10632;51.276;7.116;2023-06-24T00:41:39;17.30;99.90
20946;DHT22;10632;51.276;7.116;2023-06-24T00:44:07;17.10;99.90
20946;DHT22;10632;51.276;7.116;2023-06-24T00:46:34;17.20;99.90
20946;DHT22;10632;51.276;7.116;2023-06-24T00:49:02;17.20;99.90
20946;DHT22;10632;51.276;7.116;2023-06-24T00:51:29;17.20;99.90
20946;DHT22;10632;51.276;7.116;2023-06-24T00:53:59;17.10;99.90
20946;DHT22;10632;51.276;7.116;2023-06-24T00:56:31;17.10;99.90
20946;DHT22;10632;51.276;7.116;2023-06-24T00:59:00;17.00;99.90
20946;DHT22;10632;51.276;7.116;2023-06-24T01:01:28;17.10;99.90
20946;DHT22;10632;51.276;7.116;2023-06-24T01:03:59;17.10;99.90
20946;DHT22;10632;51.276;7.116;2023-06-24T01:06:26;17.00;99.90
20946;DHT22;10632;51.276;7.116;2023-06-24T01:08:56;17.10;99.90
20946;DHT22;10632;51.276;7.116;2023-06-24T01:11:24;17.10;99.90
20946;DHT22;10632;51.276;7.116;2023-06-24T01:13:51;17.10;99.90
20946;DHT22;10632;51.276;7.116;2023-06-24T01:16:24;17.10;99.90
20946;DHT22;10632;51.276;7.116;2023-06-24T01:19:40;17.10;99.90
20946;DHT22;10632;51.276;7.116;2023-06-24T01:22:24;17.10;99.90
20946;DHT22;10632;51.276;7.116;2023-06-24T01:25:07;17.00;99.90
20946;DHT22;10632;51.276;7.116;2023-06-24T01:28:04;17.00;99.90
20946;DHT22;10632;51.276;7.116;2023-06-24T01:31:06;17.00;99.90
20946;DHT22;10632;51.276;7.116;2023-06-24T01:33:42;16.90;99.90
20946;DHT22;10632;51.276;7.116;2023-06-24T01:36:14;16.80;99.90
20946;DHT22;10632;51.276;7.116;2023-06-24T01:38:45;16.70;99.90
20946;DHT22;10632;51.276;7.116;2023-06-24T01:41:17;16.70;99.90
20946;DHT22;10632;51.276;7.116;2023-06-24T01:43:46;16.70;99.90
20946;DHT22;10632;51.276;7.116;2023-06-24T01:46:15;16.70;99.90
20946;DHT22;10632;51.276;7.116;2023-06-24T01:48:45;16.70;99.90
20946;DHT22;10632;51.276;7.116;2023-06-24T01:51:17;16.70;99.90
20946;DHT22;10632;51.276;7.116;2023-06-24T01:53:49;16.80;99.90
20946;DHT22;10632;51.276;7.116;2023-06-24T01:56:17;16.80;99.90
20946;DHT22;10632;51.276;7.116;2023-06-24T01:58:45;16.80;99.90
20946;DHT22;10632;51.276;7.116;2023-06-24T02:01:14;16.80;99.90
20946;DHT22;10632;51.276;7.116;2023-06-24T02:03:44;16.80;99.90
20946;DHT22;10632;51.276;7.116;2023-06-24T02:06:12;16.80;99.90
20946;DHT22;10632;51.276;7.116;2023-06-24T02:08:41;16.80;99.90
20946;DHT22;10632;51.276;7.116;2023-06-24T02:11:10;16.80;99.90
20946;DHT22;10632;51.276;7.116;2023-06-24T02:13:39;16.80;99.90
20946;DHT22;10632;51.276;7.116;2023-06-24T02:16:08;16.80;99.90
20946;DHT22;10632;51.276;7.116;2023-06-24T02:18:39;16.80;99.90
20946;DHT22;10632;51.276;7.116;2023-06-24T02:21:10;16.80;99.90
20946;DHT22;10632;51.276;7.116;2023-06-24T02:23:38;16.80;99.90
20946;DHT22;10632;51.276;7.116;2023-06-24T02:26:15;16.80;99.90
20946;DHT22;10632;51.276;7.116;2023-06-24T02:28:44;16.80;99.90
20946;DHT22;10632;51.276;7.116;2023-06-24T02:31:14;16.80;99.90
20946;DHT22;10632;51.276;7.116;2023-06-24T02:33:42;16.80;99.90
20946;DHT22;10632;51.276;7.116;2023-06-24T02:36:10;16.80;99.90
20946;DHT22;10632;51.276;7.116;2023-06-24T02:38:38;16.90;99.90
20946;DHT22;10632;51.276;7.116;2023-06-24T02:41:05;16.90;99.90
20946;DHT22;10632;51.276;7.116;2023-06-24T02:43:35;16.90;99.90
20946;DHT22;10632;51.276;7.116;2023-06-24T02:46:03;16.90;99.90
20946;DHT22;10632;51.276;7.116;2023-06-24T02:48:34;17.00;99.90
20946;DHT22;10632;51.276;7.116;2023-06-24T02:51:04;16.90;99.90
20946;DHT22;10632;51.276;7.116;2023-06-24T02:53:33;17.00;99.90
20946;DHT22;10632;51.276;7.116;2023-06-24T02:56:00;17.00;99.90
20946;DHT22;10632;51.276;7.116;2023-06-24T02:58:30;17.00;99.90
20946;DHT22;10632;51.276;7.116;2023-06-24T03:00:59;17.00;99.90
20946;DHT22;10632;51.276;7.116;2023-06-24T03:03:26;17.00;99.90
20946;DHT22;10632;51.276;7.116;2023-06-24T03:05:55;17.00;99.90
20946;DHT22;10632;51.276;7.116;2023-06-24T03:08:23;17.00;99.90
20946;DHT22;10632;51.276;7.116;2023-06-24T03:10:54;16.90;99.90
20946;DHT22;10632;51.276;7.116;2023-06-24T03:13:22;16.90;99.90
20946;DHT22;10632;51.276;7.116;2023-06-24T03:15:49;16.90;99.90
20946;DHT22;10632;51.276;7.116;2023-06-24T03:18:17;16.90;99.90
20946;DHT22;10632;51.276;7.116;2023-06-24T03:20:45;16.90;99.90
20946;DHT22;10632;51.276;7.116;2023-06-24T03:23:14;17.00;99.90
20946;DHT22;10632;51.276;7.116;2023-06-24T03:25:45;16.90;99.90
20946;DHT22;10632;51.276;7.116;2023-06-24T03:28:13;16.90;99.90
20946;DHT22;10632;51.276;7.116;2023-06-24T03:30:40;16.90;99.90
20946;DHT22;10632;51.276;7.116;2023-06-24T03:33:07;16.90;99.90
20946;DHT22;10632;51.276;7.116;2023-06-24T03:35:34;16.90;99.90
20946;DHT22;10632;51.276;7.116;2023-06-24T03:38:01;16.90;99.90
20946;DHT22;10632;51.276;7.116;2023-06-24T03:40:31;16.90;99.90
20946;DHT22;10632;51.276;7.116;2023-06-24T03:42:58;16.90;99.90
20946;DHT22;10632;51.276;7.116;2023-06-24T03:45:27;16.80;99.90
20946;DHT22;10632;51.276;7.116;2023-06-24T03:47:54;16.90;99.90
20946;DHT22;10632;51.276;7.116;2023-06-24T03:50:21;16.90;99.90
20946;DHT22;10632;51.276;7.116;2023-06-24T03:52:48;16.90;99.90
20946;DHT22;10632;51.276;7.116;2023-06-24T03:55:22;16.80;99.90
20946;DHT22;10632;51.276;7.116;2023-06-24T03:57:49;16.90;99.90
20946;DHT22;10632;51.276;7.116;2023-06-24T04:00:17;16.80;99.90
20946;DHT22;10632;51.276;7.116;2023-06-24T04:02:47;16.80;99.90
20946;DHT22;10632;51.276;7.116;2023-06-24T04:05:15;16.80;99.90
20946;DHT22;10632;51.276;7.116;2023-06-24T04:07:45;16.80;99.90
20946;DHT22;10632;51.276;7.116;2023-06-24T04:10:12;16.80;99.90
20946;DHT22;10632;51.276;7.116;2023-06-24T04:12:41;16.90;99.90
20946;DHT22;10632;51.276;7.116;2023-06-24T04:15:09;16.90;99.90
20946;DHT22;10632;51.276;7.116;2023-06-24T04:17:36;16.90;99.90
20946;DHT22;10632;51.276;7.116;2023-06-24T04:20:06;16.80;99.90
20946;DHT22;10632;51.276;7.116;2023-06-24T04:22:34;16.90;99.90
20946;DHT22;10632;51.276;7.116;2023-06-24T04:25:01;16.90;99.90
20946;DHT22;10632;51.276;7.116;2023-06-24T04:27:28;17.00;99.90
20946;DHT22;10632;51.276;7.116;2023-06-24T04:29:55;17.00;99.90
20946;DHT22;10632;51.276;7.116;2023-06-24T04:32:22;17.00;99.90
20946;DHT22;10632;51.276;7.116;2023-06-24T04:34:49;17.00;99.90
20946;DHT22;10632;51.276;7.116;2023-06-24T04:37:18;17.10;99.90
20946;DHT22;10632;51.276;7.116;2023-06-24T04:39:45;17.10;99.90
20946;DHT22;10632;51.276;7.116;2023-06-24T04:42:13;17.20;99.90
20946;DHT22;10632;51.276;7.116;2023-06-24T04:44:40;17.10;99.90
20946;DHT22;10632;51.276;7.116;2023-06-24T04:47:07;17.20;99.90
20946;DHT22;10632;51.276;7.116;2023-06-24T04:49:37;17.20;99.90
20946;DHT22;10632;51.276;7.116;2023-06-24T04:52:14;17.20;99.90
20946;DHT22;10632;51.276;7.116;2023-06-24T04:54:42;17.20;99.90
20946;DHT22;10632;51.276;7.116;2023-06-24T04:57:14;17.20;99.90
20946;DHT22;10632;51.276;7.116;2023-06-24T04:59:53;17.20;99.90
20946;DHT22;10632;51.276;7.116;2023-06-24T05:02:22;17.30;99.90
20946;DHT22;10632;51.276;7.116;2023-06-24T05:04:52;17.20;99.90
20946;DHT22;10632;51.276;7.116;2023-06-24T05:07:22;17.10;99.90
20946;DHT22;10632;51.276;7.116;2023-06-24T05:09:51;17.10;99.90
20946;DHT22;10632;51.276;7.116;2023-06-24T05:12:18;17.10;99.90
20946;DHT22;10632;51.276;7.116;2023-06-24T05:14:49;17.40;99.90
20946;DHT22;10632;51.276;7.116;2023-06-24T05:17:18;17.40;99.90
20946;DHT22;10632;51.276;7.116;2023-06-24T05:19:48;17.30;99.90
20946;DHT22;10632;51.276;7.116;2023-06-24T05:22:15;17.50;99.90
20946;DHT22;10632;51.276;7.116;2023-06-24T05:24:43;17.30;99.90
20946;DHT22;10632;51.276;7.116;2023-06-24T05:27:12;17.40;99.90
20946;DHT22;10632;51.276;7.116;2023-06-24T05:29:44;17.40;99.90
20946;DHT22;10632;51.276;7.116;2023-06-24T05:32:11;17.60;99.90
20946;DHT22;10632;51.276;7.116;2023-06-24T05:34:39;17.50;99.90
20946;DHT22;10632;51.276;7.116;2023-06-24T05:37:06;17.50;99.90
20946;DHT22;10632;51.276;7.116;2023-06-24T05:39:33;17.60;99.90
20946;DHT22;10632;51.276;7.116;2023-06-24T05:42:05;17.60;99.90
20946;DHT22;10632;51.276;7.116;2023-06-24T05:44:33;17.60;99.90
20946;DHT22;10632;51.276;7.116;2023-06-24T05:47:00;17.60;99.90
20946;DHT22;10632;51.276;7.116;2023-06-24T05:49:27;17.60;99.90
20946;DHT22;10632;51.276;7.116;2023-06-24T05:51:54;17.70;99.90
20946;DHT22;10632;51.276;7.116;2023-06-24T05:54:21;17.70;99.90
20946;DHT22;10632;51.276;7.116;2023-06-24T05:56:48;17.80;99.90
20946;DHT22;10632;51.276;7.116;2023-06-24T05:59:15;17.80;99.90
20946;DHT22;10632;51.276;7.116;2023-06-24T06:01:46;17.90;99.90
20946;DHT22;10632;51.276;7.116;2023-06-24T06:04:13;18.00;99.90
20946;DHT22;10632;51.276;7.116;2023-06-24T06:06:40;18.00;99.90
20946;DHT22;10632;51.276;7.116;2023-06-24T06:09:06;18.10;99.90
20946;DHT22;10632;51.276;7.116;2023-06-24T06:11:33;18.20;99.90
20946;DHT22;10632;51.276;7.116;2023-06-24T06:14:00;18.30;99.90
20946;DHT22;10632;51.276;7.116;2023-06-24T06:16:27;18.40;99.90
20946;DHT22;10632;51.276;7.116;2023-06-24T06:18:56;18.40;99.90
20946;DHT22;10632;51.276;7.116;2023-06-24T06:21:23;18.50;99.90
20946;DHT22;10632;51.276;7.116;2023-06-24T06:23:51;18.60;99.90
20946;DHT22;10632;51.276;7.116;2023-06-24T06:26:17;18.60;99.90
20946;DHT22;10632;51.276;7.116;2023-06-24T06:28:44;18.70;99.90
20946;DHT22;10632;51.276;7.116;2023-06-24T06:31:13;18.80;99.90
20946;DHT22;10632;51.276;7.116;2023-06-24T06:33:40;18.80;99.90
20946;DHT22;10632;51.276;7.116;2023-06-24T06:36:08;18.80;99.90
20946;DHT22;10632;51.276;7.116;2023-06-24T06:38:35;18.90;99.90
20946;DHT22;10632;51.276;7.116;2023-06-24T06:41:02;18.90;99.90
20946;DHT22;10632;51.276;7.116;2023-06-24T06:43:29;18.90;99.90
20946;DHT22;10632;51.276;7.116;2023-06-24T06:45:56;18.90;99.90
20946;DHT22;10632;51.276;7.116;2023-06-24T06:48:23;18.90;99.90
20946;DHT22;10632;51.276;7.116;2023-06-24T06:50:49;18.90;99.90
20946;DHT22;10632;51.276;7.116;2023-06-24T06:53:19;18.90;99.90
20946;DHT22;10632;51.276;7.116;2023-06-24T06:55:46;18.90;99.90
20946;DHT22;10632;51.276;7.116;2023-06-24T06:58:13;19.00;99.90
20946;DHT22;10632;51.276;7.116;2023-06-24T07:00:40;19.00;99.90
20946;DHT22;10632;51.276;7.116;2023-06-24T07:03:07;19.00;99.90
20946;DHT22;10632;51.276;7.116;2023-06-24T07:05:34;18.90;99.90
20946;DHT22;10632;51.276;7.116;2023-06-24T07:08:00;19.00;99.90
20946;DHT22;10632;51.276;7.116;2023-06-24T07:10:29;19.00;99.90
20946;DHT22;10632;51.276;7.116;2023-06-24T07:12:56;19.00;99.90
20946;DHT22;10632;51.276;7.116;2023-06-24T07:15:24;19.00;99.90
20946;DHT22;10632;51.276;7.116;2023-06-24T07:17:51;19.10;99.90
20946;DHT22;10632;51.276;7.116;2023-06-24T07:20:18;19.20;99.90
20946;DHT22;10632;51.276;7.116;2023-06-24T07:22:46;19.20;99.90
20946;DHT22;10632;51.276;7.116;2023-06-24T07:25:13;19.20;99.90
20946;DHT22;10632;51.276;7.116;2023-06-24T07:27:41;19.30;99.90
20946;DHT22;10632;51.276;7.116;2023-06-24T07:30:08;19.30;99.90
20946;DHT22;10632;51.276;7.116;2023-06-24T07:32:35;19.40;99.90
20946;DHT22;10632;51.276;7.116;2023-06-24T07:35:02;19.50;99.90
20946;DHT22;10632;51.276;7.116;2023-06-24T07:37:29;19.60;99.90
20946;DHT22;10632;51.276;7.116;2023-06-24T07:39:56;19.70;99.90
20946;DHT22;10632;51.276;7.116;2023-06-24T07:42:23;19.80;99.90
20946;DHT22;10632;51.276;7.116;2023-06-24T07:44:51;19.90;99.90
20946;DHT22;10632;51.276;7.116;2023-06-24T07:47:18;20.00;99.90
20946;DHT22;10632;51.276;7.116;2023-06-24T07:49:45;20.00;99.90
20946;DHT22;10632;51.276;7.116;2023-06-24T07:52:12;20.10;99.90
20946;DHT22;10632;51.276;7.116;2023-06-24T07:54:40;20.10;99.90
20946;DHT22;10632;51.276;7.116;2023-06-24T07:57:07;20.20;99.90
20946;DHT22;10632;51.276;7.116;2023-06-24T07:59:34;20.30;99.90
20946;DHT22;10632;51.276;7.116;2023-06-24T08:02:03;20.20;99.90
20946;DHT22;10632;51.276;7.116;2023-06-24T08:04:30;20.30;99.90
20946;DHT22;10632;51.276;7.116;2023-06-24T08:06:57;20.40;99.90
20946;DHT22;10632;51.276;7.116;2023-06-24T08:09:24;20.40;99.90
20946;DHT22;10632;51.276;7.116;2023-06-24T08:11:51;20.50;99.90
20946;DHT22;10632;51.276;7.116;2023-06-24T08:14:17;20.50;99.90
20946;DHT22;10632;51.276;7.116;2023-06-24T08:16:44;20.60;99.90
20946;DHT22;10632;51.276;7.116;2023-06-24T08:19:13;20.60;99.90
20946;DHT22;10632;51.276;7.116;2023-06-24T08:21:39;20.70;99.90
20946;DHT22;10632;51.276;7.116;2023-06-24T08:24:07;20.70;99.90
20946;DHT22;10632;51.276;7.116;2023-06-24T08:26:34;20.80;99.90
20946;DHT22;10632;51.276;7.116;2023-06-24T08:29:01;20.80;99.90
20946;DHT22;10632;51.276;7.116;2023-06-24T08:31:27;20.80;99.90
20946;DHT22;10632;51.276;7.116;2023-06-24T08:33:54;20.80;99.90
20946;DHT22;10632;51.276;7.116;2023-06-24T08:36:27;20.90;99.90
20946;DHT22;10632;51.276;7.116;2023-06-24T08:38:55;20.90;99.90
20946;DHT22;10632;51.276;7.116;2023-06-24T08:41:22;20.90;99.90
20946;DHT22;10632;51.276;7.116;2023-06-24T08:43:50;20.90;99.90
20946;DHT22;10632;51.276;7.116;2023-06-24T08:46:18;21.00;99.90
20946;DHT22;10632;51.276;7.116;2023-06-24T08:48:48;21.00;99.90
20946;DHT22;10632;51.276;7.116;2023-06-24T08:51:18;21.00;99.90
20946;DHT22;10632;51.276;7.116;2023-06-24T08:53:48;21.10;99.90
20946;DHT22;10632;51.276;7.116;2023-06-24T08:56:15;21.00;99.90
20946;DHT22;10632;51.276;7.116;2023-06-24T08:58:43;21.20;99.90
20946;DHT22;10632;51.276;7.116;2023-06-24T09:01:11;21.40;99.90
20946;DHT22;10632;51.276;7.116;2023-06-24T09:03:38;21.30;99.90
20946;DHT22;10632;51.276;7.116;2023-06-24T09:06:05;21.30;99.90
20946;DHT22;10632;51.276;7.116;2023-06-24T09:08:32;21.40;99.90
20946;DHT22;10632;51.276;7.116;2023-06-24T09:11:02;21.50;99.90
20946;DHT22;10632;51.276;7.116;2023-06-24T09:13:34;21.60;99.90
20946;DHT22;10632;51.276;7.116;2023-06-24T09:16:11;21.60;99.90
20946;DHT22;10632;51.276;7.116;2023-06-24T09:18:39;21.70;99.90
20946;DHT22;10632;51.276;7.116;2023-06-24T09:21:10;21.70;99.90
20946;DHT22;10632;51.276;7.116;2023-06-24T09:23:37;21.80;99.90
20946;DHT22;10632;51.276;7.116;2023-06-24T09:26:09;22.00;99.90
20946;DHT22;10632;51.276;7.116;2023-06-24T09:28:37;22.00;99.90
20946;DHT22;10632;51.276;7.116;2023-06-24T09:31:06;22.00;99.90
20946;DHT22;10632;51.276;7.116;2023-06-24T09:33:33;22.10;99.90
20946;DHT22;10632;51.276;7.116;2023-06-24T09:36:02;22.20;99.90
20946;DHT22;10632;51.276;7.116;2023-06-24T09:38:34;22.20;99.90
20946;DHT22;10632;51.276;7.116;2023-06-24T09:41:02;22.30;99.90
20946;DHT22;10632;51.276;7.116;2023-06-24T09:43:33;22.40;99.90
20946;DHT22;10632;51.276;7.116;2023-06-24T09:46:04;22.50;99.90
20946;DHT22;10632;51.276;7.116;2023-06-24T09:48:31;22.50;99.90
20946;DHT22;10632;51.276;7.116;2023-06-24T09:51:00;22.60;99.90
20946;DHT22;10632;51.276;7.116;2023-06-24T09:53:28;22.60;99.90
20946;DHT22;10632;51.276;7.116;2023-06-24T09:55:58;22.70;99.90
20946;DHT22;10632;51.276;7.116;2023-06-24T09:58:25;22.80;99.90
20946;DHT22;10632;51.276;7.116;2023-06-24T10:00:54;22.90;99.90
20946;DHT22;10632;51.276;7.116;2023-06-24T10:03:22;23.00;99.90
20946;DHT22;10632;51.276;7.116;2023-06-24T10:05:50;23.10;99.90
20946;DHT22;10632;51.276;7.116;2023-06-24T10:08:17;23.10;99.90
20946;DHT22;10632;51.276;7.116;2023-06-24T10:10:44;23.20;99.90
20946;DHT22;10632;51.276;7.116;2023-06-24T10:13:11;23.30;99.90
20946;DHT22;10632;51.276;7.116;2023-06-24T10:15:38;23.50;99.90
20946;DHT22;10632;51.276;7.116;2023-06-24T10:18:36;23.40;99.90
20946;DHT22;10632;51.276;7.116;2023-06-24T10:21:04;23.50;99.90
20946;DHT22;10632;51.276;7.116;2023-06-24T10:23:39;23.60;99.90
20946;DHT22;10632;51.276;7.116;2023-06-24T10:26:08;23.60;99.90
20946;DHT22;10632;51.276;7.116;2023-06-24T10:29:09;23.70;99.90
20946;DHT22;10632;51.276;7.116;2023-06-24T10:31:52;23.70;99.90
20946;DHT22;10632;51.276;7.116;2023-06-24T10:34:32;23.80;99.90
20946;DHT22;10632;51.276;7.116;2023-06-24T10:37:01;24.00;99.90
20946;DHT22;10632;51.276;7.116;2023-06-24T10:39:55;24.10;99.90
20946;DHT22;10632;51.276;7.116;2023-06-24T10:42:43;24.20;99.90
20946;DHT22;10632;51.276;7.116;2023-06-24T10:45:17;24.20;99.90
20946;DHT22;10632;51.276;7.116;2023-06-24T10:47:46;24.30;99.90
20946;DHT22;10632;51.276;7.116;2023-06-24T10:50:15;24.30;99.90
20946;DHT22;10632;51.276;7.116;2023-06-24T10:52:43;24.30;99.90
20946;DHT22;10632;51.276;7.116;2023-06-24T10:55:13;24.40;99.90
20946;DHT22;10632;51.276;7.116;2023-06-24T10:57:40;24.50;99.90
20946;DHT22;10632;51.276;7.116;2023-06-24T11:00:08;24.60;99.90
20946;DHT22;10632;51.276;7.116;2023-06-24T11:02:35;24.70;99.90
20946;DHT22;10632;51.276;7.116;2023-06-24T11:05:04;24.80;99.90
20946;DHT22;10632;51.276;7.116;2023-06-24T11:07:34;24.90;99.90
20946;DHT22;10632;51.276;7.116;2023-06-24T11:10:05;25.00;99.90
20946;DHT22;10632;51.276;7.116;2023-06-24T11:12:33;25.10;99.90
20946;DHT22;10632;51.276;7.116;2023-06-24T11:15:02;25.10;99.90
20946;DHT22;10632;51.276;7.116;2023-06-24T11:17:29;25.10;99.90
20946;DHT22;10632;51.276;7.116;2023-06-24T11:19:57;25.20;99.90
20946;DHT22;10632;51.276;7.116;2023-06-24T11:22:25;25.20;99.90
20946;DHT22;10632;51.276;7.116;2023-06-24T11:24:55;25.20;99.90
20946;DHT22;10632;51.276;7.116;2023-06-24T11:27:29;25.20;99.90
20946;DHT22;10632;51.276;7.116;2023-06-24T11:29:58;25.30;99.90
20946;DHT22;10632;51.276;7.116;2023-06-24T11:32:38;25.50;99.90
20946;DHT22;10632;51.276;7.116;2023-06-24T11:35:09;25.60;99.90
20946;DHT22;10632;51.276;7.116;2023-06-24T11:37:36;25.70;99.90
20946;DHT22;10632;51.276;7.116;2023-06-24T11:40:07;25.90;99.90
20946;DHT22;10632;51.276;7.116;2023-06-24T11:42:36;26.00;99.90
20946;DHT22;10632;51.276;7.116;2023-06-24T11:45:05;26.00;99.90
20946;DHT22;10632;51.276;7.116;2023-06-24T11:47:32;26.10;99.90
20946;DHT22;10632;51.276;7.116;2023-06-24T11:50:00;26.20;99.90
20946;DHT22;10632;51.276;7.116;2023-06-24T11:52:42;26.20;99.90
20946;DHT22;10632;51.276;7.116;2023-06-24T11:55:16;26.40;99.90
20946;DHT22;10632;51.276;7.116;2023-06-24T11:57:50;26.50;99.90
20946;DHT22;10632;51.276;7.116;2023-06-24T12:00:20;26.50;99.90
20946;DHT22;10632;51.276;7.116;2023-06-24T12:02:52;26.50;99.90
20946;DHT22;10632;51.276;7.116;2023-06-24T12:05:23;26.50;99.90
20946;DHT22;10632;51.276;7.116;2023-06-24T12:07:56;26.50;99.90
20946;DHT22;10632;51.276;7.116;2023-06-24T12:10:25;26.50;99.90
20946;DHT22;10632;51.276;7.116;2023-06-24T12:12:52;26.50;99.90
20946;DHT22;10632;51.276;7.116;2023-06-24T12:15:19;26.50;97.20
20946;DHT22;10632;51.276;7.116;2023-06-24T12:17:46;26.50;98.40
20946;DHT22;10632;51.276;7.116;2023-06-24T12:20:13;26.50;99.10
20946;DHT22;10632;51.276;7.116;2023-06-24T12:22:41;26.50;98.80
20946;DHT22;10632;51.276;7.116;2023-06-24T12:25:09;26.60;98.60
20946;DHT22;10632;51.276;7.116;2023-06-24T12:27:37;26.60;99.30
20946;DHT22;10632;51.276;7.116;2023-06-24T12:30:06;26.70;99.20
20946;DHT22;10632;51.276;7.116;2023-06-24T12:32:33;26.70;99.10
20946;DHT22;10632;51.276;7.116;2023-06-24T12:35:00;26.70;99.10
20946;DHT22;10632;51.276;7.116;2023-06-24T12:37:29;26.70;99.20
20946;DHT22;10632;51.276;7.116;2023-06-24T12:39:56;26.70;99.10
20946;DHT22;10632;51.276;7.116;2023-06-24T12:42:23;26.70;98.80
20946;DHT22;10632;51.276;7.116;2023-06-24T12:44:51;26.60;98.40
20946;DHT22;10632;51.276;7.116;2023-06-24T12:47:18;26.60;98.50
20946;DHT22;10632;51.276;7.116;2023-06-24T12:49:45;26.60;98.80
20946;DHT22;10632;51.276;7.116;2023-06-24T12:52:12;26.50;97.40
20946;DHT22;10632;51.276;7.116;2023-06-24T12:54:40;26.50;97.20
20946;DHT22;10632;51.276;7.116;2023-06-24T12:57:07;26.50;96.20
20946;DHT22;10632;51.276;7.116;2023-06-24T12:59:33;26.50;95.50
20946;DHT22;10632;51.276;7.116;2023-06-24T13:02:02;26.50;95.80
20946;DHT22;10632;51.276;7.116;2023-06-24T13:04:29;26.50;96.80
20946;DHT22;10632;51.276;7.116;2023-06-24T13:06:56;26.60;96.60
20946;DHT22;10632;51.276;7.116;2023-06-24T13:09:23;26.60;95.90
20946;DHT22;10632;51.276;7.116;2023-06-24T13:11:53;26.70;95.30
20946;DHT22;10632;51.276;7.116;2023-06-24T13:14:19;26.70;93.80
20946;DHT22;10632;51.276;7.116;2023-06-24T13:16:46;26.70;93.00
20946;DHT22;10632;51.276;7.116;2023-06-24T13:19:15;26.80;92.40
20946;DHT22;10632;51.276;7.116;2023-06-24T13:21:43;26.70;92.60
20946;DHT22;10632;51.276;7.116;2023-06-24T13:24:09;26.70;92.90
20946;DHT22;10632;51.276;7.116;2023-06-24T13:26:38;26.70;92.10
20946;DHT22;10632;51.276;7.116;2023-06-24T13:29:05;26.80;92.90
20946;DHT22;10632;51.276;7.116;2023-06-24T13:31:33;26.80;92.90
20946;DHT22;10632;51.276;7.116;2023-06-24T13:33:59;26.70;93.30
20946;DHT22;10632;51.276;7.116;2023-06-24T13:36:33;26.70;93.40
20946;DHT22;10632;51.276;7.116;2023-06-24T13:39:01;26.70;93.30
20946;DHT22;10632;51.276;7.116;2023-06-24T13:41:29;26.60;93.30
20946;DHT22;10632;51.276;7.116;2023-06-24T13:43:58;26.50;93.40
20946;DHT22;10632;51.276;7.116;2023-06-24T13:46:25;26.50;93.70
20946;DHT22;10632;51.276;7.116;2023-06-24T13:48:52;26.50;93.00
20946;DHT22;10632;51.276;7.116;2023-06-24T13:51:19;26.40;93.80
20946;DHT22;10632;51.276;7.116;2023-06-24T13:53:48;26.40;94.40
20946;DHT22;10632;51.276;7.116;2023-06-24T13:56:16;26.50;94.70
20946;DHT22;10632;51.276;7.116;2023-06-24T13:58:43;26.40;94.50
20946;DHT22;10632;51.276;7.116;2023-06-24T14:01:10;26.40;94.60
20946;DHT22;10632;51.276;7.116;2023-06-24T14:03:37;26.30;95.40
20946;DHT22;10632;51.276;7.116;2023-06-24T14:06:05;26.30;95.90
20946;DHT22;10632;51.276;7.116;2023-06-24T14:08:32;26.40;95.90
20946;DHT22;10632;51.276;7.116;2023-06-24T14:11:02;26.40;96.00
20946;DHT22;10632;51.276;7.116;2023-06-24T14:13:29;26.50;95.90
20946;DHT22;10632;51.276;7.116;2023-06-24T14:15:56;26.50;95.60
20946;DHT22;10632;51.276;7.116;2023-06-24T14:18:23;26.60;95.40
20946;DHT22;10632;51.276;7.116;2023-06-24T14:20:50;26.60;94.90
20946;DHT22;10632;51.276;7.116;2023-06-24T14:23:17;26.60;95.80
20946;DHT22;10632;51.276;7.116;2023-06-24T14:25:44;26.60;96.00
20946;DHT22;10632;51.276;7.116;2023-06-24T14:28:13;26.60;95.40
20946;DHT22;10632;51.276;7.116;2023-06-24T14:30:40;26.50;96.30
20946;DHT22;10632;51.276;7.116;2023-06-24T14:33:08;26.50;96.00
20946;DHT22;10632;51.276;7.116;2023-06-24T14:35:35;26.50;95.50
20946;DHT22;10632;51.276;7.116;2023-06-24T14:38:02;26.50;95.80
20946;DHT22;10632;51.276;7.116;2023-06-24T14:40:28;26.50;95.70
20946;DHT22;10632;51.276;7.116;2023-06-24T14:42:55;26.50;95.30
20946;DHT22;10632;51.276;7.116;2023-06-24T14:45:24;26.50;94.60
20946;DHT22;10632;51.276;7.116;2023-06-24T14:47:51;26.50;94.60
20946;DHT22;10632;51.276;7.116;2023-06-24T14:50:17;26.40;94.80
20946;DHT22;10632;51.276;7.116;2023-06-24T14:52:44;26.40;94.90
20946;DHT22;10632;51.276;7.116;2023-06-24T14:55:11;26.40;94.50
20946;DHT22;10632;51.276;7.116;2023-06-24T14:57:38;26.40;94.20
20946;DHT22;10632;51.276;7.116;2023-06-24T15:00:06;26.40;94.30
20946;DHT22;10632;51.276;7.116;2023-06-24T15:02:35;26.40;94.20
20946;DHT22;10632;51.276;7.116;2023-06-24T15:05:02;26.40;93.80
20946;DHT22;10632;51.276;7.116;2023-06-24T15:07:29;26.40;94.00
20946;DHT22;10632;51.276;7.116;2023-06-24T15:09:56;26.40;93.80
20946;DHT22;10632;51.276;7.116;2023-06-24T15:12:23;26.50;93.20
20946;DHT22;10632;51.276;7.116;2023-06-24T15:14:49;26.50;92.20
20946;DHT22;10632;51.276;7.116;2023-06-24T15:17:16;26.40;92.10
20946;DHT22;10632;51.276;7.116;2023-06-24T15:19:45;26.40;92.30
20946;DHT22;10632;51.276;7.116;2023-06-24T15:22:12;26.30;92.50
20946;DHT22;10632;51.276;7.116;2023-06-24T15:24:39;26.40;92.90
20946;DHT22;10632;51.276;7.116;2023-06-24T15:27:05;26.40;92.50
20946;DHT22;10632;51.276;7.116;2023-06-24T15:29:32;26.40;92.70
20946;DHT22;10632;51.276;7.116;2023-06-24T15:31:59;26.40;92.30
20946;DHT22;10632;51.276;7.116;2023-06-24T15:34:27;26.40;92.70
20946;DHT22;10632;51.276;7.116;2023-06-24T15:36:55;26.50;92.30
20946;DHT22;10632;51.276;7.116;2023-06-24T15:39:22;26.50;91.60
20946;DHT22;10632;51.276;7.116;2023-06-24T15:41:49;26.50;91.50